Time;durP1;ratioP1;P1;durP2;ratioP2;P2;SDS_P1;SDS_P2;PMS_P1;PMS_P2;Temp;Humidity;BMP_temperature;BMP_pressure;BME280_temperature;BME280_humidity;BME280_pressure;Samples;Min_cycle;Max_cycle;Signal;HPM_P1;HPM_P2
2022/01/29 00:00:09;;;;;;;52.40;31.67;;;;;;;7.22;76.38;102742.13;3591212;40;20060;-64
2022/01/29 00:02:35;;;;;;;48.53;30.00;;;;;;;7.21;76.92;102746.59;3590897;40;20044;-64
2022/01/29 00:05:01;;;;;;;54.17;31.73;;;;;;;7.22;77.28;102743.00;3592674;40;20063;-64
2022/01/29 00:07:26;;;;;;;49.20;30.75;;;;;;;7.23;77.03;102727.88;3593582;40;20047;-63
2022/01/29 00:09:53;;;;;;;51.28;29.40;;;;;;;7.21;76.70;102730.56;3592943;40;20055;-64
2022/01/29 00:12:19;;;;;;;46.83;29.85;;;;;;;7.24;76.39;102726.06;3593567;39;20305;-64
2022/01/29 00:14:44;;;;;;;52.60;30.27;;;;;;;7.23;76.55;102717.16;3593589;40;20090;-63
2022/01/29 00:17:13;;;;;;;48.95;31.42;;;;;;;7.16;76.90;102694.97;3592448;40;20060;-63
2022/01/29 00:19:40;;;;;;;58.35;34.25;;;;;;;7.22;76.91;102710.91;3592834;40;20039;-63
2022/01/29 00:22:07;;;;;;;52.78;30.25;;;;;;;7.20;76.83;102702.03;3592004;40;20051;-64
2022/01/29 00:24:34;;;;;;;54.55;31.15;;;;;;;7.24;77.21;102691.28;3593358;40;20080;-64
2022/01/29 00:27:02;;;;;;;51.20;31.85;;;;;;;7.00;77.01;102647.13;3591842;40;20044;-64
2022/01/29 00:29:28;;;;;;;50.22;29.42;;;;;;;7.22;77.04;102694.84;3593137;40;20117;-64
2022/01/29 00:31:54;;;;;;;46.40;29.73;;;;;;;7.33;76.57;102701.84;3591878;40;20380;-63
2022/01/29 00:34:19;;;;;;;54.75;31.60;;;;;;;7.33;77.17;102685.78;3594227;40;20052;-64
2022/01/29 00:36:45;;;;;;;55.15;31.23;;;;;;;7.33;76.70;102685.78;3592220;40;20082;-64
2022/01/29 00:39:11;;;;;;;48.17;30.67;;;;;;;7.31;76.75;102675.09;3594663;40;20409;-64
2022/01/29 00:41:36;;;;;;;47.40;29.90;;;;;;;7.32;76.44;102678.66;3595853;39;20067;-65
2022/01/29 00:44:02;;;;;;;51.67;30.63;;;;;;;7.33;76.60;102678.63;3596498;40;20058;-64
2022/01/29 00:46:27;;;;;;;52.47;30.02;;;;;;;7.35;76.82;102683.94;3593669;40;20044;-63
2022/01/29 00:48:53;;;;;;;55.17;29.75;;;;;;;7.31;77.15;102677.75;3594299;40;20124;-63
2022/01/29 00:51:19;;;;;;;50.67;31.17;;;;;;;7.32;76.99;102673.28;3592642;40;20087;-64
2022/01/29 00:53:44;;;;;;;47.35;28.65;;;;;;;7.20;77.22;102653.03;3591351;40;20048;-64
2022/01/29 00:56:10;;;;;;;51.40;30.67;;;;;;;7.34;76.49;102669.69;3592200;40;20067;-63
2022/01/29 00:58:36;;;;;;;53.25;31.05;;;;;;;7.35;76.67;102668.75;3593639;40;20056;-64
2022/01/29 01:01:02;;;;;;;48.08;30.02;;;;;;;7.40;76.63;102672.25;3590715;39;20107;-64
2022/01/29 01:03:28;;;;;;;48.17;28.67;;;;;;;7.38;76.55;102651.78;3594539;40;20056;-64
2022/01/29 01:05:53;;;;;;;49.28;29.92;;;;;;;7.30;76.88;102637.69;3594752;40;20319;-63
2022/01/29 01:08:19;;;;;;;52.35;32.67;;;;;;;7.37;77.19;102652.69;3591690;40;20055;-64
2022/01/29 01:10:45;;;;;;;51.58;29.42;;;;;;;7.39;77.82;102640.16;3592830;39;20057;-64
2022/01/29 01:13:10;;;;;;;51.70;30.63;;;;;;;7.29;77.57;102631.44;3594720;40;20060;-64
2022/01/29 01:15:36;;;;;;;64.60;40.30;;;;;;;7.32;77.51;102622.47;3593831;40;20058;-63
2022/01/29 01:18:02;;;;;;;51.38;30.45;;;;;;;7.42;77.60;102629.38;3593827;40;20062;-64
2022/01/29 01:20:28;;;;;;;50.13;30.52;;;;;;;7.43;78.03;102623.16;3594229;39;20378;-64
2022/01/29 01:22:54;;;;;;;54.58;32.40;;;;;;;7.38;77.97;102617.88;3625813;22;20048;-65
2022/01/29 01:25:20;;;;;;;47.72;30.98;;;;;;;7.11;78.67;102573.84;3590694;40;20071;-63
2022/01/29 01:27:46;;;;;;;48.85;29.83;;;;;;;7.33;78.34;102600.19;3591301;39;20404;-64
2022/01/29 01:30:12;;;;;;;49.85;30.33;;;;;;;7.27;78.26;102581.56;3588055;39;20068;-63
2022/01/29 01:32:38;;;;;;;49.63;30.83;;;;;;;7.21;78.77;102580.78;3594937;40;20056;-62
2022/01/29 01:36:08;;;;;;;49.28;30.27;;;;;;;7.01;78.59;102545.53;3596469;39;20268;-62
2022/01/29 01:38:17;;;;;;;47.50;29.80;;;;;;;7.25;79.07;102586.06;3587906;40;20492;-62
2022/01/29 01:40:47;;;;;;;50.40;30.15;;;;;;;7.28;78.62;102580.66;3598039;39;20064;-62
2022/01/29 01:43:13;;;;;;;47.67;30.63;;;;;;;7.04;79.16;102529.41;3595247;39;20083;-61
2022/01/29 01:45:38;;;;;;;46.10;27.92;;;;;;;7.24;79.29;102573.59;3592781;39;20399;-64
2022/01/29 01:48:06;;;;;;;51.13;29.85;;;;;;;7.25;79.14;102580.72;3586099;40;20044;-64
2022/01/29 01:50:34;;;;;;;49.00;30.85;;;;;;;7.25;79.32;102583.38;3597374;39;20394;-61
2022/01/29 01:53:00;;;;;;;51.55;29.90;;;;;;;7.20;79.71;102568.31;3592671;39;20051;-61
2022/01/29 01:55:26;;;;;;;49.58;29.63;;;;;;;7.19;80.44;102561.19;3593608;39;20353;-61
2022/01/29 01:57:55;;;;;;;50.72;29.73;;;;;;;7.17;80.54;102563.03;3586941;40;20048;-61
2022/01/29 02:00:21;;;;;;;48.05;29.90;;;;;;;7.16;80.52;102571.94;3589859;39;20099;-61
2022/01/29 02:02:47;;;;;;;47.30;29.02;;;;;;;7.15;80.42;102559.50;3591699;40;20054;-62
2022/01/29 02:05:13;;;;;;;54.05;31.33;;;;;;;7.09;81.21;102551.59;3587491;39;20064;-61
2022/01/29 02:07:39;;;;;;;53.80;28.77;;;;;;;7.13;81.07;102566.66;3590015;40;20288;-61
2022/01/29 02:10:11;;;;;;;49.28;28.88;;;;;;;7.04;81.36;102536.53;3590498;39;20089;-60
2022/01/29 02:13:01;;;;;;;46.70;29.23;;;;;;;7.03;81.21;102524.97;3587826;40;20068;-61
2022/01/29 02:15:27;;;;;;;47.15;27.73;;;;;;;7.15;81.26;102538.09;3592047;39;20120;-61
2022/01/29 02:17:53;;;;;;;43.20;27.73;;;;;;;7.08;81.65;102530.25;3597301;39;20051;-61
2022/01/29 02:20:25;;;;;;;45.28;29.38;;;;;;;7.14;81.77;102540.81;3591356;40;20109;-62
2022/01/29 02:22:52;;;;;;;43.35;27.88;;;;;;;6.95;81.49;102509.09;3588001;39;20056;-61
2022/01/29 02:25:36;;;;;;;40.75;27.40;;;;;;;7.08;81.35;102531.13;3595486;39;20068;-61
2022/01/29 02:28:13;;;;;;;44.10;27.35;;;;;;;7.09;81.72;102527.53;3587966;39;20674;-61
2022/01/29 02:30:42;;;;;;;46.03;27.80;;;;;;;6.81;82.10;102486.19;3592370;39;20160;-62
2022/01/29 02:33:13;;;;;;;43.45;28.48;;;;;;;7.04;81.52;102521.41;3588145;39;20032;-61
2022/01/29 02:35:45;;;;;;;41.60;26.40;;;;;;;6.97;81.79;102506.38;3590064;39;20052;-61
2022/01/29 02:38:14;;;;;;;38.83;25.10;;;;;;;7.13;81.86;102523.84;3585904;39;20116;-61
2022/01/29 02:40:49;;;;;;;42.40;28.00;;;;;;;7.11;82.45;102514.13;3588723;40;20051;-61
2022/01/29 02:43:31;;;;;;;40.55;27.08;;;;;;;7.08;82.19;102514.19;3590180;39;20093;-61
2022/01/29 02:48:45;;;;;;;40.50;27.40;;;;;;;7.04;82.34;102505.34;3592561;39;20055;-61
2022/01/29 02:51:11;;;;;;;41.60;27.55;;;;;;;7.12;82.28;102522.09;3590321;39;20077;-61
2022/01/29 02:53:37;;;;;;;42.17;29.27;;;;;;;7.09;82.20;102502.56;3596072;39;20067;-61
2022/01/29 02:56:03;;;;;;;40.97;26.75;;;;;;;7.14;82.55;102498.91;3588374;39;20059;-61
2022/01/29 02:58:29;;;;;;;41.78;27.02;;;;;;;7.07;83.10;102491.03;3593763;39;20052;-61
2022/01/29 03:00:55;;;;;;;43.15;28.17;;;;;;;7.13;83.26;102497.13;3590530;39;20343;-61
2022/01/29 03:03:21;;;;;;;46.65;29.90;;;;;;;7.07;82.57;102486.59;3590426;39;20146;-61
2022/01/29 03:05:46;;;;;;;44.42;26.83;;;;;;;7.15;83.17;102502.44;3587286;40;20052;-60
2022/01/29 03:08:13;;;;;;;44.08;28.63;;;;;;;7.05;83.58;102484.84;3594825;39;20048;-61
2022/01/29 03:10:39;;;;;;;43.58;28.17;;;;;;;7.04;83.08;102473.28;3592250;39;20051;-61
2022/01/29 03:13:05;;;;;;;45.05;28.48;;;;;;;7.14;82.97;102490.00;3591973;39;20373;-61
2022/01/29 03:15:31;;;;;;;40.85;25.77;;;;;;;7.22;83.14;102496.94;3588602;39;20397;-61
2022/01/29 03:17:57;;;;;;;45.50;28.35;;;;;;;7.11;83.09;102484.72;3589726;39;20047;-61
2022/01/29 03:20:22;;;;;;;41.58;28.25;;;;;;;7.15;83.16;102489.09;3593946;39;20417;-61
2022/01/29 03:22:48;;;;;;;44.65;27.02;;;;;;;7.04;83.06;102457.22;3589944;39;20156;-63
2022/01/29 03:25:16;;;;;;;39.78;26.45;;;;;;;7.16;83.63;102475.66;3587475;39;20050;-61
2022/01/29 03:27:42;;;;;;;45.35;28.10;;;;;;;7.21;83.55;102479.13;3588826;39;20050;-61
2022/01/29 03:30:09;;;;;;;44.95;27.98;;;;;;;7.17;83.88;102465.88;3585715;39;20369;-60
2022/01/29 03:32:35;;;;;;;45.20;28.50;;;;;;;7.11;83.45;102461.53;3590171;40;20386;-61
2022/01/29 03:35:02;;;;;;;47.47;28.42;;;;;;;7.19;83.27;102454.19;3588350;39;20059;-60
2022/01/29 03:37:28;;;;;;;49.20;28.20;;;;;;;7.13;83.00;102448.97;3591431;39;20087;-61
2022/01/29 03:39:58;;;;;;;45.33;28.40;;;;;;;7.16;83.24;102446.25;3592566;39;20051;-60
2022/01/29 03:42:24;;;;;;;43.50;28.25;;;;;;;7.17;83.39;102453.38;3587229;40;20349;-61
2022/01/29 03:44:50;;;;;;;45.22;27.95;;;;;;;7.20;83.01;102455.97;3591311;39;20119;-60
2022/01/29 03:47:16;;;;;;;45.17;28.20;;;;;;;7.14;83.39;102429.38;3591109;40;20363;-61
2022/01/29 03:49:41;;;;;;;45.58;28.05;;;;;;;7.15;83.18;102423.09;3587572;40;20272;-62
2022/01/29 03:52:07;;;;;;;39.63;25.33;;;;;;;7.29;82.87;102443.31;3586459;40;20071;-61
2022/01/29 03:54:32;;;;;;;43.63;26.63;;;;;;;7.30;83.03;102439.75;3590512;39;20048;-61
2022/01/29 03:56:58;;;;;;;45.78;26.10;;;;;;;7.32;83.18;102437.88;3587199;40;20056;-61
2022/01/29 03:59:24;;;;;;;40.97;24.55;;;;;;;7.29;83.06;102433.47;3589512;39;20060;-61
2022/01/29 04:01:49;;;;;;;38.10;24.48;;;;;;;7.28;83.38;102442.44;3587214;40;20062;-61
2022/01/29 04:04:15;;;;;;;39.72;25.33;;;;;;;7.15;83.19;102415.06;3593848;39;20052;-61
2022/01/29 04:06:40;;;;;;;41.80;24.50;;;;;;;7.28;82.53;102418.34;3591621;39;20056;-61
2022/01/29 04:09:10;;;;;;;35.50;23.27;;;;;;;7.39;82.67;102426.13;3591867;39;20051;-61
2022/01/29 04:11:38;;;;;;;37.75;23.60;;;;;;;7.37;83.22;102430.66;3591387;39;20154;-61
2022/01/29 04:14:13;;;;;;;37.38;23.25;;;;;;;7.38;83.11;102440.44;3588469;40;20047;-61
2022/01/29 04:16:38;;;;;;;36.10;23.90;;;;;;;6.90;82.83;102341.66;3589328;40;20045;-61
2022/01/29 04:19:04;;;;;;;33.05;22.00;;;;;;;7.40;83.33;102422.56;3593290;39;20321;-61
2022/01/29 04:21:29;;;;;;;34.20;22.70;;;;;;;7.48;83.21;102439.28;3587030;40;20058;-61
2022/01/29 04:23:55;;;;;;;33.78;22.40;;;;;;;7.44;83.40;102416.22;3590214;39;20067;-61
2022/01/29 04:26:20;;;;;;;31.77;20.95;;;;;;;7.45;82.82;102415.28;3590622;39;20048;-61
2022/01/29 04:28:47;;;;;;;35.13;21.45;;;;;;;7.46;83.11;102418.88;3592816;40;20291;-61
2022/01/29 04:31:18;;;;;;;31.45;21.25;;;;;;;7.55;82.40;102414.19;3587573;39;20092;-61
2022/01/29 04:33:45;;;;;;;35.20;22.63;;;;;;;7.52;83.02;102400.88;3590038;39;20060;-61
2022/01/29 04:36:11;;;;;;;39.88;23.35;;;;;;;7.51;82.68;102406.25;3594476;39;20048;-61
2022/01/29 04:38:37;;;;;;;36.72;22.10;;;;;;;7.63;82.92;102412.19;3593678;40;20059;-61
2022/01/29 04:41:05;;;;;;;36.50;22.95;;;;;;;7.61;83.02;102408.69;3590743;40;20056;-66
2022/01/29 04:43:36;;;;;;;32.58;22.08;;;;;;;7.61;83.01;102408.69;3590474;39;20134;-61
2022/01/29 04:46:03;;;;;;;37.95;23.65;;;;;;;7.60;83.70;102406.03;3587654;40;20101;-60
2022/01/29 04:48:28;;;;;;;37.13;22.42;;;;;;;7.42;83.35;102370.78;3590160;39;20332;-63
2022/01/29 04:50:54;;;;;;;35.20;22.60;;;;;;;7.66;83.54;102397.84;3590048;40;20040;-60
2022/01/29 04:53:20;;;;;;;36.17;22.20;;;;;;;7.47;83.63;102359.97;3588573;39;20044;-62
2022/01/29 04:55:46;;;;;;;39.58;24.48;;;;;;;7.66;83.25;102390.69;3591545;39;20055;-62
2022/01/29 04:58:12;;;;;;;37.95;24.83;;;;;;;7.64;83.70;102384.53;3591413;39;20060;-65
2022/01/29 05:00:38;;;;;;;38.10;24.58;;;;;;;7.68;84.07;102379.97;3591203;39;20060;-66
2022/01/29 05:03:14;;;;;;;39.13;24.58;;;;;;;7.73;84.20;102390.53;3595970;39;20287;-65
2022/01/29 05:05:41;;;;;;;38.92;24.83;;;;;;;7.65;83.57;102372.88;3589638;39;20059;-66
2022/01/29 05:08:08;;;;;;;39.17;25.58;;;;;;;7.71;83.39;102366.50;3591099;39;20104;-65
2022/01/29 05:10:35;;;;;;;39.45;25.08;;;;;;;7.70;84.24;102364.72;3591787;39;20055;-65
2022/01/29 05:13:05;;;;;;;40.92;25.67;;;;;;;7.77;84.04;102373.47;3589571;39;20171;-64
2022/01/29 05:26:50;;;;;;;39.28;24.27;;;;;;;7.78;83.67;102364.56;3587526;40;20421;-65
2022/01/29 05:29:16;;;;;;;43.90;27.27;;;;;;;7.84;84.36;102349.22;3591043;39;20322;-69
2022/01/29 05:31:42;;;;;;;48.08;26.27;;;;;;;7.83;84.04;102344.78;3591436;39;20054;-65
2022/01/29 05:34:07;;;;;;;44.55;27.88;;;;;;;7.82;84.05;102336.78;3589800;39;20048;-64
2022/01/29 05:36:34;;;;;;;43.50;26.77;;;;;;;7.86;83.91;102343.81;3588618;39;20048;-65
2022/01/29 05:39:01;;;;;;;42.80;26.60;;;;;;;7.89;84.03;102349.94;3590642;39;20104;-66
2022/01/29 05:41:28;;;;;;;45.75;27.45;;;;;;;7.94;84.13;102347.16;3591034;39;20048;-65
2022/01/29 05:43:54;;;;;;;40.15;26.88;;;;;;;7.90;84.23;102354.41;3593520;39;20128;-65
2022/01/29 05:46:20;;;;;;;42.80;27.10;;;;;;;8.00;84.03;102357.72;3586683;40;20080;-64
2022/01/29 05:48:45;;;;;;;39.95;26.92;;;;;;;7.89;84.14;102349.06;3589906;40;20055;-65
2022/01/29 05:51:12;;;;;;;41.65;27.60;;;;;;;8.00;84.49;102357.72;3592364;39;20062;-64
2022/01/29 05:53:38;;;;;;;42.60;26.80;;;;;;;8.03;83.88;102356.78;3590892;39;20056;-65
2022/01/29 05:56:05;;;;;;;44.47;27.65;;;;;;;8.02;84.19;102350.50;3591131;39;20624;-65
2022/01/29 05:58:30;;;;;;;40.95;27.20;;;;;;;8.05;84.11;102344.19;3589965;40;20145;-66
2022/01/29 06:00:56;;;;;;;42.63;27.27;;;;;;;8.02;84.06;102339.78;3594380;39;20379;-64
2022/01/29 06:03:22;;;;;;;45.30;26.40;;;;;;;8.09;83.84;102346.78;3587754;39;20054;-65
2022/01/29 06:05:47;;;;;;;42.50;27.95;;;;;;;7.97;84.67;102314.09;3590290;40;20060;-64
2022/01/29 06:08:13;;;;;;;42.13;28.00;;;;;;;8.01;84.55;102316.63;3591108;39;20417;-65
2022/01/29 06:10:39;;;;;;;42.30;27.67;;;;;;;8.06;84.08;102329.91;3588707;39;20047;-65
2022/01/29 06:13:11;;;;;;;40.75;27.13;;;;;;;8.13;84.43;102337.72;3591706;39;20390;-64
2022/01/29 06:15:41;;;;;;;43.53;28.45;;;;;;;7.96;83.86;102293.56;3593124;39;20063;-65
2022/01/29 06:18:12;;;;;;;44.50;28.23;;;;;;;8.05;83.79;102312.94;3593656;39;20044;-64
2022/01/29 06:20:37;;;;;;;42.17;29.27;;;;;;;8.16;84.43;102327.84;3592979;39;20091;-67
2022/01/29 06:23:03;;;;;;;45.83;29.35;;;;;;;8.19;83.71;102342.03;3587791;40;20059;-64
2022/01/29 06:25:29;;;;;;;41.90;29.23;;;;;;;8.19;84.17;102325.09;3588585;39;20100;-65
2022/01/29 06:27:55;;;;;;;41.97;27.63;;;;;;;8.01;83.83;102295.19;3590942;39;20054;-65
2022/01/29 06:30:21;;;;;;;41.53;28.50;;;;;;;8.19;84.02;102323.28;3590044;39;20159;-65
2022/01/29 06:32:46;;;;;;;41.67;27.92;;;;;;;8.24;84.56;102329.38;3591275;39;20380;-64
2022/01/29 06:35:12;;;;;;;40.72;26.77;;;;;;;8.24;84.52;102317.78;3590349;39;20194;-64
2022/01/29 06:37:39;;;;;;;39.70;27.58;;;;;;;8.31;84.40;102330.09;3586038;40;20048;-65
2022/01/29 06:40:06;;;;;;;43.83;28.63;;;;;;;8.10;84.03;102294.94;3588919;39;20460;-65
2022/01/29 06:42:32;;;;;;;39.70;27.17;;;;;;;8.28;83.55;102312.31;3591940;39;20076;-64
2022/01/29 06:44:58;;;;;;;37.60;26.65;;;;;;;8.25;84.51;102315.09;3589845;39;20075;-66
2022/01/29 06:47:23;;;;;;;37.88;26.52;;;;;;;8.28;84.01;102314.13;3586100;39;20302;-64
2022/01/29 06:49:49;;;;;;;41.70;27.90;;;;;;;8.27;83.66;102306.97;3593287;39;20079;-65
2022/01/29 06:52:14;;;;;;;38.03;27.75;;;;;;;8.21;83.92;102285.72;3590723;39;20050;-66
2022/01/29 06:54:40;;;;;;;38.38;27.58;;;;;;;8.35;84.42;102307.66;3591614;39;20055;-64
2022/01/29 06:57:06;;;;;;;41.47;28.13;;;;;;;8.32;83.85;102305.06;3592589;39;20124;-66
2022/01/29 06:59:32;;;;;;;40.80;27.55;;;;;;;8.29;84.64;102294.44;3591162;39;20420;-65
2022/01/29 07:01:57;;;;;;;37.13;27.23;;;;;;;8.37;84.58;102297.75;3593109;39;20044;-64
2022/01/29 07:04:23;;;;;;;36.38;26.55;;;;;;;8.34;83.92;102287.13;3591201;39;20064;-65
2022/01/29 07:06:48;;;;;;;40.72;27.65;;;;;;;8.42;83.86;102295.88;3589555;40;20060;-64
2022/01/29 07:09:14;;;;;;;41.95;26.95;;;;;;;8.43;83.94;102286.88;3588531;39;20056;-65
2022/01/29 07:11:43;;;;;;;39.35;26.88;;;;;;;8.22;84.35;102247.31;3590754;40;20367;-64
2022/01/29 07:14:11;;;;;;;35.97;25.63;;;;;;;8.48;83.99;102292.13;3589517;39;20136;-64
2022/01/29 07:16:38;;;;;;;36.45;25.63;;;;;;;8.51;84.42;102289.38;3588150;40;20058;-65
2022/01/29 07:19:04;;;;;;;34.30;26.00;;;;;;;8.51;83.59;102284.00;3596713;39;20044;-64
2022/01/29 07:21:30;;;;;;;38.83;27.13;;;;;;;8.53;83.79;102279.47;3592082;39;20063;-65
2022/01/29 07:23:56;;;;;;;38.17;27.10;;;;;;;8.56;84.32;102282.94;3630989;22;20310;-66
2022/01/29 07:26:21;;;;;;;36.15;26.70;;;;;;;8.57;83.78;102287.38;3597615;39;20059;-62
2022/01/29 07:28:47;;;;;;;37.90;26.90;;;;;;;8.59;84.48;102290.91;3599630;39;20050;-62
2022/01/29 07:31:12;;;;;;;38.90;26.35;;;;;;;8.59;83.93;102277.50;3600811;39;20267;-61
2022/01/29 07:33:38;;;;;;;37.13;26.95;;;;;;;8.60;84.51;102283.72;3585833;39;20102;-62
2022/01/29 07:36:04;;;;;;;34.65;26.63;;;;;;;8.47;84.91;102252.84;3578602;40;20083;-61
2022/01/29 07:38:30;;;;;;;37.00;26.73;;;;;;;8.58;84.46;102290.94;3579125;40;20056;-61
2022/01/29 07:40:56;;;;;;;36.60;27.40;;;;;;;8.64;85.31;102289.88;3578361;40;20044;-62
2022/01/29 07:43:21;;;;;;;34.92;25.90;;;;;;;8.70;84.38;102284.31;3575401;40;20343;-63
2022/01/29 07:45:47;;;;;;;35.63;27.10;;;;;;;8.68;85.14;102275.44;3576074;40;20064;-62
2022/01/29 07:48:13;;;;;;;37.78;26.88;;;;;;;8.70;85.37;102284.31;3575468;40;20057;-63
2022/01/29 07:50:38;;;;;;;34.85;25.88;;;;;;;8.75;84.57;102277.00;3574400;40;20055;-63
2022/01/29 07:53:04;;;;;;;33.25;25.80;;;;;;;8.76;85.17;102278.78;3575505;40;20056;-63
2022/01/29 07:55:31;;;;;;;35.13;26.30;;;;;;;8.61;85.22;102239.91;3575062;40;20068;-63
2022/01/29 07:58:01;;;;;;;37.00;27.05;;;;;;;8.81;85.38;102272.31;3574890;40;20067;-64
2022/01/29 08:00:30;;;;;;;33.05;26.35;;;;;;;8.88;84.93;102269.44;3580070;40;20068;-64
2022/01/29 08:02:56;;;;;;;31.65;25.80;;;;;;;8.89;85.09;102265.88;3578061;40;20141;-64
2022/01/29 08:05:22;;;;;;;30.10;25.30;;;;;;;8.91;84.54;102262.22;3576911;40;20152;-64
2022/01/29 08:07:47;;;;;;;34.13;26.50;;;;;;;8.97;84.44;102255.75;3578896;40;20367;-64
2022/01/29 08:10:13;;;;;;;33.85;25.45;;;;;;;8.99;84.52;102270.00;3578178;40;20052;-64
2022/01/29 08:12:39;;;;;;;33.75;25.17;;;;;;;8.91;84.78;102245.22;3576633;40;20100;-64
2022/01/29 08:15:06;;;;;;;30.40;24.45;;;;;;;9.07;84.81;102251.88;3573634;40;20354;-64
2022/01/29 08:17:33;;;;;;;31.35;25.27;;;;;;;9.11;83.77;102256.19;3578956;40;20290;-64
2022/01/29 08:19:59;;;;;;;29.88;24.85;;;;;;;9.15;84.18;102249.78;3578165;40;20088;-64
2022/01/29 08:22:25;;;;;;;32.58;24.45;;;;;;;9.18;83.12;102255.06;3568311;40;20064;-64
2022/01/29 08:24:52;;;;;;;33.15;25.08;;;;;;;9.23;83.57;102238.81;3578164;40;20065;-65
2022/01/29 08:27:19;;;;;;;32.00;25.33;;;;;;;9.28;83.60;102236.84;3578285;40;20052;-64
2022/01/29 08:29:45;;;;;;;28.15;23.45;;;;;;;9.20;83.41;102220.16;3578356;40;20060;-64
2022/01/29 08:32:11;;;;;;;28.48;23.83;;;;;;;9.26;83.61;102230.63;3575863;40;20052;-64
2022/01/29 08:34:39;;;;;;;34.30;23.95;;;;;;;9.21;83.28;102221.88;3577111;40;20118;-64
2022/01/29 08:37:05;;;;;;;29.70;24.02;;;;;;;9.42;82.52;102237.28;3574962;40;20098;-64
2022/01/29 08:39:32;;;;;;;27.65;22.77;;;;;;;9.46;83.25;102224.63;3577473;40;20053;-64
2022/01/29 08:41:57;;;;;;;28.98;23.75;;;;;;;9.47;82.75;102229.03;3577953;40;20050;-64
2022/01/29 08:44:23;;;;;;;26.13;21.85;;;;;;;9.48;82.18;102220.94;3574487;40;20077;-64
2022/01/29 08:46:49;;;;;;;27.35;22.15;;;;;;;9.53;82.74;102220.78;3573703;40;20381;-64
2022/01/29 08:49:15;;;;;;;28.13;22.95;;;;;;;9.51;82.40;102215.47;3576991;40;20095;-64
2022/01/29 08:51:40;;;;;;;26.52;21.58;;;;;;;9.54;82.10;102214.47;3576228;40;20051;-65
2022/01/29 08:54:06;;;;;;;25.77;21.75;;;;;;;9.62;82.92;102220.47;3567979;40;20049;-64
2022/01/29 08:56:32;;;;;;;27.02;21.60;;;;;;;9.65;82.01;102222.16;3575649;40;20153;-64
2022/01/29 08:58:57;;;;;;;25.58;21.25;;;;;;;9.63;82.72;102219.50;3575812;40;20064;-65
2022/01/29 09:01:23;;;;;;;26.75;21.20;;;;;;;9.68;82.28;102217.56;3580812;40;20092;-65
2022/01/29 09:03:49;;;;;;;26.60;21.27;;;;;;;9.72;81.78;102218.31;3579383;40;20513;-64
2022/01/29 09:06:15;;;;;;;25.10;20.85;;;;;;;9.70;82.08;102221.03;3577679;40;20060;-65
2022/01/29 09:08:45;;;;;;;24.75;20.58;;;;;;;9.70;81.78;102204.94;3580181;40;20107;-64
2022/01/29 09:11:11;;;;;;;25.95;21.50;;;;;;;9.72;82.45;102210.25;3574124;40;20059;-65
2022/01/29 09:13:36;;;;;;;25.60;20.77;;;;;;;9.69;81.70;102197.81;3579120;40;20168;-64
2022/01/29 09:16:02;;;;;;;22.40;18.73;;;;;;;9.56;82.08;102169.66;3581402;40;20114;-65
2022/01/29 09:18:28;;;;;;;23.83;17.95;;;;;;;9.86;81.61;102202.56;3577024;40;20047;-65
2022/01/29 09:20:53;;;;;;;24.52;19.58;;;;;;;9.85;81.82;102206.19;3578503;40;20391;-65
2022/01/29 09:23:19;;;;;;;20.58;17.25;;;;;;;9.85;81.73;102198.13;3578172;40;20279;-64
2022/01/29 09:25:45;;;;;;;22.42;17.00;;;;;;;9.92;81.27;102202.34;3577213;40;20102;-65
2022/01/29 09:28:13;;;;;;;23.25;17.33;;;;;;;9.93;81.61;102201.44;3576759;40;20088;-64
2022/01/29 09:30:39;;;;;;;24.60;18.27;;;;;;;9.84;81.58;102190.16;3578266;40;20057;-64
2022/01/29 09:33:05;;;;;;;22.40;18.00;;;;;;;9.94;81.52;102213.91;3580113;40;20060;-64
2022/01/29 09:35:31;;;;;;;22.08;17.30;;;;;;;9.98;81.74;102206.63;3578948;40;20048;-65
2022/01/29 09:37:57;;;;;;;19.35;16.88;;;;;;;9.98;80.93;102204.81;3579003;40;20056;-65
2022/01/29 09:40:24;;;;;;;21.90;16.80;;;;;;;9.93;81.08;102201.44;3576596;40;20057;-64
2022/01/29 09:42:51;;;;;;;21.27;17.38;;;;;;;10.04;81.55;102211.75;3576598;40;20134;-64
2022/01/29 09:45:21;;;;;;;24.83;18.10;;;;;;;10.05;81.04;102215.31;3578549;40;20117;-65
2022/01/29 09:47:48;;;;;;;21.08;16.92;;;;;;;10.06;80.75;102200.97;3577187;40;20053;-65
2022/01/29 09:50:18;;;;;;;20.45;16.88;;;;;;;9.83;81.51;102159.75;3577078;40;20052;-65
2022/01/29 09:52:44;;;;;;;22.77;17.92;;;;;;;10.10;81.47;102208.84;3575607;40;20127;-65
2022/01/29 09:55:10;;;;;;;25.02;17.90;;;;;;;9.77;80.64;102147.41;3575442;40;20059;-65
2022/01/29 09:57:37;;;;;;;21.75;17.58;;;;;;;10.11;80.93;102207.03;3580542;40;20048;-65
2022/01/29 10:00:05;;;;;;;20.70;15.88;;;;;;;10.10;80.90;102202.59;3579249;40;20044;-64
2022/01/29 10:02:31;;;;;;;20.88;17.83;;;;;;;10.15;81.47;102209.56;3576549;40;20112;-65
2022/01/29 10:04:57;;;;;;;20.38;17.23;;;;;;;10.14;81.16;102209.59;3577431;40;20303;-64
2022/01/29 10:07:28;;;;;;;22.42;17.85;;;;;;;10.22;80.53;102208.38;3575985;40;20361;-65
2022/01/29 10:09:57;;;;;;;21.30;16.90;;;;;;;10.24;80.84;102208.31;3578579;40;20044;-65
2022/01/29 10:12:32;;;;;;;20.35;16.98;;;;;;;10.26;80.49;102198.41;3573959;40;20064;-65
2022/01/29 10:15:05;;;;;;;22.13;18.35;;;;;;;10.18;80.01;102179.88;3579744;40;20056;-65
2022/01/29 10:17:42;;;;;;;18.20;16.35;;;;;;;10.34;80.37;102201.69;3577541;40;21911;-65
2022/01/29 10:20:22;;;;;;;20.98;17.35;;;;;;;10.39;80.19;102196.13;3578010;40;20385;-65
2022/01/29 10:22:52;;;;;;;20.33;16.85;;;;;;;10.41;80.02;102189.78;3576382;40;20073;-65
2022/01/29 10:25:30;;;;;;;19.98;16.80;;;;;;;10.43;79.45;102187.91;3578405;40;20379;-64
2022/01/29 10:28:15;;;;;;;22.17;16.52;;;;;;;10.50;79.43;102184.94;3574730;40;20053;-64
2022/01/29 10:30:50;;;;;;;22.35;17.40;;;;;;;10.54;79.06;102178.53;3579936;40;20102;-64
2022/01/29 10:33:40;;;;;;;17.42;14.93;;;;;;;10.62;78.96;102166.50;3577717;40;20055;-64
2022/01/29 10:36:10;;;;;;;21.33;16.65;;;;;;;10.59;78.78;102161.28;3577266;40;20050;-65
2022/01/29 10:38:41;;;;;;;18.48;16.17;;;;;;;10.62;78.47;102142.31;3579154;40;20055;-65
2022/01/29 10:41:29;;;;;;;19.75;16.30;;;;;;;10.64;78.40;102148.50;3582542;40;20486;-65
2022/01/29 10:44:10;;;;;;;21.17;17.02;;;;;;;10.68;78.77;102149.25;3581070;40;20153;-65
2022/01/29 10:46:40;;;;;;;19.48;15.25;;;;;;;10.70;78.64;102150.06;3575000;40;20051;-65
2022/01/29 10:49:06;;;;;;;17.15;15.35;;;;;;;10.71;77.97;102141.06;3578968;40;20082;-65
2022/01/29 10:51:35;;;;;;;17.85;15.30;;;;;;;10.64;78.01;102107.31;3579696;40;20095;-65
2022/01/29 10:54:20;;;;;;;15.55;13.82;;;;;;;10.89;76.93;102139.44;3576617;40;20102;-65
2022/01/29 10:56:58;;;;;;;19.27;14.45;;;;;;;10.94;76.77;102153.53;3579128;40;20053;-65
2022/01/29 10:59:27;;;;;;;15.15;13.50;;;;;;;10.97;77.32;102141.78;3578763;40;20411;-65
2022/01/29 11:02:00;;;;;;;14.30;12.82;;;;;;;11.01;76.97;102136.22;3578884;40;20130;-64
2022/01/29 11:04:30;;;;;;;15.15;13.52;;;;;;;11.04;76.46;102137.91;3579641;40;20319;-64
2022/01/29 11:07:00;;;;;;;14.35;12.63;;;;;;;10.92;76.66;102113.28;3575964;40;20047;-65
2022/01/29 11:09:29;;;;;;;14.80;11.93;;;;;;;11.05;75.91;102131.59;3577221;40;20383;-64
2022/01/29 11:11:59;;;;;;;12.93;10.50;;;;;;;11.14;75.60;102126.69;3577428;40;20048;-65
2022/01/29 11:14:28;;;;;;;11.70;9.77;;;;;;;10.91;75.45;102070.31;3579609;40;20075;-65
2022/01/29 11:16:53;;;;;;;11.52;10.32;;;;;;;11.21;74.89;102113.81;3576828;40;20075;-64
2022/01/29 11:19:19;;;;;;;13.52;9.52;;;;;;;11.24;75.17;102113.69;3574603;40;20717;-65
2022/01/29 11:21:51;;;;;;;11.23;9.23;;;;;;;11.26;74.73;102111.81;3574917;40;20060;-65
2022/01/29 11:24:25;;;;;;;9.80;8.80;;;;;;;11.30;74.56;102099.97;3576570;40;20076;-65
2022/01/29 11:26:51;;;;;;;13.52;9.32;;;;;;;11.28;74.38;102104.53;3577932;40;20108;-65
2022/01/29 11:29:25;;;;;;;8.88;8.00;;;;;;;11.34;74.60;102101.56;3577171;40;20101;-65
2022/01/29 11:32:20;;;;;;;12.75;9.85;;;;;;;11.41;73.87;102103.97;3576407;40;20280;-64